sensor_id;sensor_type;location;lat;lon;timestamp;temperature;humidity
13205;DHT22;6667;52.634;9.226;2023-07-13T07:25:40;23.90;1.00
13205;DHT22;6667;52.634;9.226;2023-07-13T07:31:26;24.00;96.40
13205;DHT22;6667;52.634;9.226;2023-07-13T07:33:53;23.50;99.90
13205;DHT22;6667;52.634;9.226;2023-07-13T07:36:20;23.10;99.90
13205;DHT22;6667;52.634;9.226;2023-07-13T07:38:49;23.70;66.60
13205;DHT22;6667;52.634;9.226;2023-07-13T07:41:16;24.40;18.10
13205;DHT22;6667;52.634;9.226;2023-07-13T07:43:49;23.90;33.70
13205;DHT22;6667;52.634;9.226;2023-07-13T07:46:16;24.10;28.20
13205;DHT22;6667;52.634;9.226;2023-07-13T07:48:44;24.10;61.90
13205;DHT22;6667;52.634;9.226;2023-07-13T07:51:11;23.80;99.90
13205;DHT22;6667;52.634;9.226;2023-07-13T07:56:10;25.40;99.90
13205;DHT22;6667;52.634;9.226;2023-07-13T07:58:37;25.00;1.00
13205;DHT22;6667;52.634;9.226;2023-07-13T08:01:05;24.50;65.20
13205;DHT22;6667;52.634;9.226;2023-07-13T08:03:33;24.20;1.00
13205;DHT22;6667;52.634;9.226;2023-07-13T08:06:00;24.20;1.00
13205;DHT22;6667;52.634;9.226;2023-07-13T08:10:54;23.40;1.00
13205;DHT22;6667;52.634;9.226;2023-07-13T08:13:27;23.40;1.00
13205;DHT22;6667;52.634;9.226;2023-07-13T08:15:54;23.70;1.00
13205;DHT22;6667;52.634;9.226;2023-07-13T08:18:21;24.30;1.00
13205;DHT22;6667;52.634;9.226;2023-07-13T08:20:49;24.80;1.00
13205;DHT22;6667;52.634;9.226;2023-07-13T08:23:17;25.50;1.00
13205;DHT22;6667;52.634;9.226;2023-07-13T08:25:50;25.40;1.00
13205;DHT22;6667;52.634;9.226;2023-07-13T08:28:19;24.50;1.00
13205;DHT22;6667;52.634;9.226;2023-07-13T08:30:49;24.90;1.00
13205;DHT22;6667;52.634;9.226;2023-07-13T08:33:18;24.70;1.00
13205;DHT22;6667;52.634;9.226;2023-07-13T08:35:54;25.30;1.00
13205;DHT22;6667;52.634;9.226;2023-07-13T08:38:24;25.20;1.00
13205;DHT22;6667;52.634;9.226;2023-07-13T08:40:53;25.40;1.00
13205;DHT22;6667;52.634;9.226;2023-07-13T08:46:25;25.80;1.00
13205;DHT22;6667;52.634;9.226;2023-07-13T08:48:58;26.50;91.10
13205;DHT22;6667;52.634;9.226;2023-07-13T08:52:13;26.30;9.40
13205;DHT22;6667;52.634;9.226;2023-07-13T08:54:24;25.90;1.00
13205;DHT22;6667;52.634;9.226;2023-07-13T08:59:45;26.60;1.00
13205;DHT22;6667;52.634;9.226;2023-07-13T09:02:26;26.30;1.00
13205;DHT22;6667;52.634;9.226;2023-07-13T09:05:02;26.30;1.00
13205;DHT22;6667;52.634;9.226;2023-07-13T09:07:36;26.90;1.00
13205;DHT22;6667;52.634;9.226;2023-07-13T09:17:57;28.80;1.00
13205;DHT22;6667;52.634;9.226;2023-07-13T09:20:30;28.40;1.00
13205;DHT22;6667;52.634;9.226;2023-07-13T09:23:14;27.70;1.00
13205;DHT22;6667;52.634;9.226;2023-07-13T09:25:45;28.10;1.00
13205;DHT22;6667;52.634;9.226;2023-07-13T09:28:17;28.00;1.00
13205;DHT22;6667;52.634;9.226;2023-07-13T09:30:51;28.80;1.00
13205;DHT22;6667;52.634;9.226;2023-07-13T09:33:25;28.90;1.00
13205;DHT22;6667;52.634;9.226;2023-07-13T09:35:55;29.20;1.00
13205;DHT22;6667;52.634;9.226;2023-07-13T09:38:35;29.50;1.00
13205;DHT22;6667;52.634;9.226;2023-07-13T09:41:17;29.60;1.00
13205;DHT22;6667;52.634;9.226;2023-07-13T09:44:06;29.40;1.00
13205;DHT22;6667;52.634;9.226;2023-07-13T09:49:09;27.70;1.00
13205;DHT22;6667;52.634;9.226;2023-07-13T09:51:42;27.60;99.90
13205;DHT22;6667;52.634;9.226;2023-07-13T09:59:36;28.60;1.00
13205;DHT22;6667;52.634;9.226;2023-07-13T10:05:24;27.70;99.90
13205;DHT22;6667;52.634;9.226;2023-07-13T10:07:53;27.40;99.90
13205;DHT22;6667;52.634;9.226;2023-07-13T10:10:27;28.50;1.00
13205;DHT22;6667;52.634;9.226;2023-07-13T10:19:45;28.50;99.90
13205;DHT22;6667;52.634;9.226;2023-07-13T10:22:22;29.20;99.90
13205;DHT22;6667;52.634;9.226;2023-07-13T10:25:21;29.00;1.00
13205;DHT22;6667;52.634;9.226;2023-07-13T10:28:41;29.10;1.00
13205;DHT22;6667;52.634;9.226;2023-07-13T10:33:59;28.30;99.90
13205;DHT22;6667;52.634;9.226;2023-07-13T10:36:32;28.30;99.90
13205;DHT22;6667;52.634;9.226;2023-07-13T10:39:14;28.60;99.90
13205;DHT22;6667;52.634;9.226;2023-07-13T10:41:44;28.90;99.90
13205;DHT22;6667;52.634;9.226;2023-07-13T10:44:26;29.10;99.90
13205;DHT22;6667;52.634;9.226;2023-07-13T10:50:55;29.20;99.90
13205;DHT22;6667;52.634;9.226;2023-07-13T10:53:41;29.60;99.90
13205;DHT22;6667;52.634;9.226;2023-07-13T10:56:22;29.30;99.90
13205;DHT22;6667;52.634;9.226;2023-07-13T10:59:09;28.80;99.90
13205;DHT22;6667;52.634;9.226;2023-07-13T11:01:46;29.30;99.90
13205;DHT22;6667;52.634;9.226;2023-07-13T11:04:20;29.40;99.90
13205;DHT22;6667;52.634;9.226;2023-07-13T11:10:04;29.50;99.90
13205;DHT22;6667;52.634;9.226;2023-07-13T11:12:55;29.50;99.90
13205;DHT22;6667;52.634;9.226;2023-07-13T11:15:43;29.70;99.90
13205;DHT22;6667;52.634;9.226;2023-07-13T11:18:21;28.60;99.90
13205;DHT22;6667;52.634;9.226;2023-07-13T11:20:51;28.90;99.90
13205;DHT22;6667;52.634;9.226;2023-07-13T11:23:32;29.00;99.90
13205;DHT22;6667;52.634;9.226;2023-07-13T11:26:02;29.40;99.90
13205;DHT22;6667;52.634;9.226;2023-07-13T11:28:42;29.30;99.90
13205;DHT22;6667;52.634;9.226;2023-07-13T11:31:16;28.80;99.90
13205;DHT22;6667;52.634;9.226;2023-07-13T11:35:18;28.20;99.90
13205;DHT22;6667;52.634;9.226;2023-07-13T11:36:57;28.50;99.90
13205;DHT22;6667;52.634;9.226;2023-07-13T11:39:36;28.80;99.90
13205;DHT22;6667;52.634;9.226;2023-07-13T11:42:16;29.20;99.90
13205;DHT22;6667;52.634;9.226;2023-07-13T11:44:49;29.10;99.90
13205;DHT22;6667;52.634;9.226;2023-07-13T11:47:24;29.10;99.90
13205;DHT22;6667;52.634;9.226;2023-07-13T11:53:39;29.20;99.90
13205;DHT22;6667;52.634;9.226;2023-07-13T11:56:27;29.80;99.90
13205;DHT22;6667;52.634;9.226;2023-07-13T12:02:23;28.90;99.90
13205;DHT22;6667;52.634;9.226;2023-07-13T12:05:00;29.10;99.90
13205;DHT22;6667;52.634;9.226;2023-07-13T12:07:38;29.00;99.90
13205;DHT22;6667;52.634;9.226;2023-07-13T12:10:34;29.10;99.90
13205;DHT22;6667;52.634;9.226;2023-07-13T12:13:23;28.90;99.90
13205;DHT22;6667;52.634;9.226;2023-07-13T12:16:00;29.50;99.90
13205;DHT22;6667;52.634;9.226;2023-07-13T12:18:44;29.60;99.90
13205;DHT22;6667;52.634;9.226;2023-07-13T12:21:29;29.20;99.90
13205;DHT22;6667;52.634;9.226;2023-07-13T12:24:03;29.00;99.90
13205;DHT22;6667;52.634;9.226;2023-07-13T12:26:34;28.70;99.90
13205;DHT22;6667;52.634;9.226;2023-07-13T12:29:16;28.10;1.00
13205;DHT22;6667;52.634;9.226;2023-07-13T12:32:00;26.90;99.90
13205;DHT22;6667;52.634;9.226;2023-07-13T12:34:52;25.50;1.00
13205;DHT22;6667;52.634;9.226;2023-07-13T12:37:22;24.70;99.90
13205;DHT22;6667;52.634;9.226;2023-07-13T12:40:12;24.00;1.00
13205;DHT22;6667;52.634;9.226;2023-07-13T12:42:51;23.10;1.00
13205;DHT22;6667;52.634;9.226;2023-07-13T12:45:56;23.40;1.00
13205;DHT22;6667;52.634;9.226;2023-07-13T12:48:48;23.40;1.00
13205;DHT22;6667;52.634;9.226;2023-07-13T12:51:32;23.60;1.00
13205;DHT22;6667;52.634;9.226;2023-07-13T12:54:15;23.50;1.00
13205;DHT22;6667;52.634;9.226;2023-07-13T12:56:53;23.40;1.00
13205;DHT22;6667;52.634;9.226;2023-07-13T12:59:23;22.80;1.00
13205;DHT22;6667;52.634;9.226;2023-07-13T13:01:57;22.60;1.00
13205;DHT22;6667;52.634;9.226;2023-07-13T13:04:32;22.60;1.00
13205;DHT22;6667;52.634;9.226;2023-07-13T13:10:24;23.00;1.00
13205;DHT22;6667;52.634;9.226;2023-07-13T13:12:59;22.90;1.00
13205;DHT22;6667;52.634;9.226;2023-07-13T13:15:34;22.60;1.00
13205;DHT22;6667;52.634;9.226;2023-07-13T13:18:04;22.50;1.00
13205;DHT22;6667;52.634;9.226;2023-07-13T13:30:43;24.00;1.00
13205;DHT22;6667;52.634;9.226;2023-07-13T13:33:34;24.10;1.00
13205;DHT22;6667;52.634;9.226;2023-07-13T13:36:16;23.80;1.00
13205;DHT22;6667;52.634;9.226;2023-07-13T13:38:50;23.30;1.00
13205;DHT22;6667;52.634;9.226;2023-07-13T13:41:46;23.70;1.00
13205;DHT22;6667;52.634;9.226;2023-07-13T13:48:36;24.00;1.00
13205;DHT22;6667;52.634;9.226;2023-07-13T13:51:27;24.00;99.90
13205;DHT22;6667;52.634;9.226;2023-07-13T13:57:18;23.50;99.90
13205;DHT22;6667;52.634;9.226;2023-07-13T14:00:14;23.30;99.90
13205;DHT22;6667;52.634;9.226;2023-07-13T14:02:51;23.10;99.90
13205;DHT22;6667;52.634;9.226;2023-07-13T14:08:32;22.60;1.00
13205;DHT22;6667;52.634;9.226;2023-07-13T14:11:07;22.60;1.00
13205;DHT22;6667;52.634;9.226;2023-07-13T14:13:50;22.40;1.00
13205;DHT22;6667;52.634;9.226;2023-07-13T15:41:04;21.20;1.00
13205;DHT22;6667;52.634;9.226;2023-07-13T16:01:13;20.80;10.20
13205;DHT22;6667;52.634;9.226;2023-07-13T16:13:57;20.90;99.90
13205;DHT22;6667;52.634;9.226;2023-07-13T16:16:45;21.20;99.90
13205;DHT22;6667;52.634;9.226;2023-07-13T16:43:48;20.50;99.90
13205;DHT22;6667;52.634;9.226;2023-07-13T16:46:45;20.70;99.90
13205;DHT22;6667;52.634;9.226;2023-07-13T16:49:27;20.20;99.90
13205;DHT22;6667;52.634;9.226;2023-07-13T17:19:29;20.80;99.90
13205;DHT22;6667;52.634;9.226;2023-07-13T17:22:36;20.90;99.90
13205;DHT22;6667;52.634;9.226;2023-07-13T17:25:15;20.80;99.90
13205;DHT22;6667;52.634;9.226;2023-07-13T17:27:43;20.50;99.90
13205;DHT22;6667;52.634;9.226;2023-07-13T17:30:36;20.80;99.90
13205;DHT22;6667;52.634;9.226;2023-07-13T17:33:19;20.70;99.90
13205;DHT22;6667;52.634;9.226;2023-07-13T17:36:09;20.90;99.90
13205;DHT22;6667;52.634;9.226;2023-07-13T17:38:47;20.60;99.90
13205;DHT22;6667;52.634;9.226;2023-07-13T17:41:19;20.70;99.90
13205;DHT22;6667;52.634;9.226;2023-07-13T17:44:02;20.60;57.00
13205;DHT22;6667;52.634;9.226;2023-07-13T17:46:56;20.50;55.10
13205;DHT22;6667;52.634;9.226;2023-07-13T17:52:12;20.60;71.10
13205;DHT22;6667;52.634;9.226;2023-07-13T17:54:39;20.70;90.90
13205;DHT22;6667;52.634;9.226;2023-07-13T17:57:06;20.60;94.00
13205;DHT22;6667;52.634;9.226;2023-07-13T17:59:34;20.20;97.00
13205;DHT22;6667;52.634;9.226;2023-07-13T18:02:01;20.20;99.90
13205;DHT22;6667;52.634;9.226;2023-07-13T18:04:28;20.30;99.90
13205;DHT22;6667;52.634;9.226;2023-07-13T18:06:55;20.20;99.90
13205;DHT22;6667;52.634;9.226;2023-07-13T18:09:32;20.20;99.90
13205;DHT22;6667;52.634;9.226;2023-07-13T18:12:13;20.20;99.90
13205;DHT22;6667;52.634;9.226;2023-07-13T18:14:50;20.40;99.90
13205;DHT22;6667;52.634;9.226;2023-07-13T18:17:18;20.20;99.90
13205;DHT22;6667;52.634;9.226;2023-07-13T18:20:10;20.30;99.90
13205;DHT22;6667;52.634;9.226;2023-07-13T18:22:56;20.20;99.90
13205;DHT22;6667;52.634;9.226;2023-07-13T18:28:35;19.80;99.90
13205;DHT22;6667;52.634;9.226;2023-07-13T18:31:18;20.00;99.90
13205;DHT22;6667;52.634;9.226;2023-07-13T18:36:30;19.90;99.90
13205;DHT22;6667;52.634;9.226;2023-07-13T18:39:08;19.90;99.90
13205;DHT22;6667;52.634;9.226;2023-07-13T18:51:56;19.40;99.90
13205;DHT22;6667;52.634;9.226;2023-07-13T18:54:51;19.60;99.90
13205;DHT22;6667;52.634;9.226;2023-07-13T19:00:07;19.20;99.90
13205;DHT22;6667;52.634;9.226;2023-07-13T19:00:39;19.10;99.90
13205;DHT22;6667;52.634;9.226;2023-07-13T19:09:16;18.90;99.90
13205;DHT22;6667;52.634;9.226;2023-07-13T19:22:07;18.70;99.90
13205;DHT22;6667;52.634;9.226;2023-07-13T19:28:32;18.50;99.90
13205;DHT22;6667;52.634;9.226;2023-07-13T19:31:16;18.50;99.90
13205;DHT22;6667;52.634;9.226;2023-07-13T19:34:16;18.50;99.90
13205;DHT22;6667;52.634;9.226;2023-07-13T19:53:25;18.20;99.90
13205;DHT22;6667;52.634;9.226;2023-07-13T19:56:11;18.30;99.90
13205;DHT22;6667;52.634;9.226;2023-07-13T19:58:38;18.10;99.90
13205;DHT22;6667;52.634;9.226;2023-07-13T20:03:56;18.10;99.90
13205;DHT22;6667;52.634;9.226;2023-07-13T20:13:38;18.20;99.90
13205;DHT22;6667;52.634;9.226;2023-07-13T20:16:12;18.20;99.90
13205;DHT22;6667;52.634;9.226;2023-07-13T20:18:55;18.10;99.90
13205;DHT22;6667;52.634;9.226;2023-07-13T20:21:36;18.00;99.90
13205;DHT22;6667;52.634;9.226;2023-07-13T20:27:34;18.10;90.40
13205;DHT22;6667;52.634;9.226;2023-07-13T20:37:21;17.80;99.90
13205;DHT22;6667;52.634;9.226;2023-07-13T20:40:00;17.90;99.90
13205;DHT22;6667;52.634;9.226;2023-07-13T20:42:34;17.80;99.90
13205;DHT22;6667;52.634;9.226;2023-07-13T20:51:54;17.40;99.90
13205;DHT22;6667;52.634;9.226;2023-07-13T20:54:28;17.50;99.90
13205;DHT22;6667;52.634;9.226;2023-07-13T20:56:57;17.30;99.90
13205;DHT22;6667;52.634;9.226;2023-07-13T20:59:51;17.40;99.90
13205;DHT22;6667;52.634;9.226;2023-07-13T21:05:36;17.40;99.90
13205;DHT22;6667;52.634;9.226;2023-07-13T21:08:10;17.30;99.90
13205;DHT22;6667;52.634;9.226;2023-07-13T21:10:42;17.20;99.90
13205;DHT22;6667;52.634;9.226;2023-07-13T21:13:15;17.30;99.90
13205;DHT22;6667;52.634;9.226;2023-07-13T21:15:48;17.30;99.90
13205;DHT22;6667;52.634;9.226;2023-07-13T21:18:20;17.10;99.90
13205;DHT22;6667;52.634;9.226;2023-07-13T21:20:50;17.10;99.90
13205;DHT22;6667;52.634;9.226;2023-07-13T21:26:24;17.10;99.90
13205;DHT22;6667;52.634;9.226;2023-07-13T21:28:52;17.10;99.90
13205;DHT22;6667;52.634;9.226;2023-07-13T21:31:25;17.20;99.90
13205;DHT22;6667;52.634;9.226;2023-07-13T21:37:23;17.10;1.00
13205;DHT22;6667;52.634;9.226;2023-07-13T21:39:55;17.10;1.00
13205;DHT22;6667;52.634;9.226;2023-07-13T21:42:26;17.00;1.00
13205;DHT22;6667;52.634;9.226;2023-07-13T21:44:54;17.00;1.00
13205;DHT22;6667;52.634;9.226;2023-07-13T21:47:22;17.10;1.00
13205;DHT22;6667;52.634;9.226;2023-07-13T21:52:33;17.10;99.90
13205;DHT22;6667;52.634;9.226;2023-07-13T21:55:11;17.00;99.90
13205;DHT22;6667;52.634;9.226;2023-07-13T21:57:48;17.00;99.90
13205;DHT22;6667;52.634;9.226;2023-07-13T22:00:21;17.10;99.90
13205;DHT22;6667;52.634;9.226;2023-07-13T22:03:29;16.90;1.00
13205;DHT22;6667;52.634;9.226;2023-07-13T22:05:58;16.80;1.00
13205;DHT22;6667;52.634;9.226;2023-07-13T22:08:32;16.80;1.00
13205;DHT22;6667;52.634;9.226;2023-07-13T22:11:19;16.70;1.00
13205;DHT22;6667;52.634;9.226;2023-07-13T22:13:52;16.60;1.00
13205;DHT22;6667;52.634;9.226;2023-07-13T22:17:04;16.70;1.00
13205;DHT22;6667;52.634;9.226;2023-07-13T22:19:28;16.80;1.00
13205;DHT22;6667;52.634;9.226;2023-07-13T22:21:59;16.70;1.00
13205;DHT22;6667;52.634;9.226;2023-07-13T22:24:29;16.60;1.00
13205;DHT22;6667;52.634;9.226;2023-07-13T22:27:04;16.60;1.00
13205;DHT22;6667;52.634;9.226;2023-07-13T22:32:54;16.60;99.90
